Time;durP1;ratioP1;P1;durP2;ratioP2;P2;SDS_P1;SDS_P2;PMS_P1;PMS_P2;Temp;Humidity;BMP_temperature;BMP_pressure;BME280_temperature;BME280_humidity;BME280_pressure;Samples;Min_cycle;Max_cycle;Signal;HPM_P1;HPM_P2
2022/10/14 00:00:39;;;;;;;8.50;4.40;;;;;;;13.96;73.00;95241.31;5093241;28;20444;-76
2022/10/14 00:03:06;;;;;;;5.53;5.00;;;;;;;13.93;72.56;95239.78;5096417;28;20455;-76
2022/10/14 00:05:33;;;;;;;6.87;4.80;;;;;;;13.86;72.55;95236.03;5043897;28;20437;-77
2022/10/14 00:08:00;;;;;;;7.00;5.37;;;;;;;14.01;73.09;95239.06;5096499;28;20444;-77
2022/10/14 00:10:28;;;;;;;8.40;4.70;;;;;;;13.82;73.57;95232.00;5095970;28;20479;-77
2022/10/14 00:12:55;;;;;;;5.40;4.40;;;;;;;13.75;73.65;95227.44;5060180;28;20439;-76
2022/10/14 00:15:22;;;;;;;10.17;5.50;;;;;;;13.80;74.21;95225.22;5095736;28;20447;-77
2022/10/14 00:17:48;;;;;;;5.40;4.30;;;;;;;13.76;74.42;95219.41;5044020;28;20459;-76
2022/10/14 00:20:15;;;;;;;6.10;4.63;;;;;;;13.88;74.60;95223.56;5095936;28;20492;-77
2022/10/14 00:22:42;;;;;;;5.07;3.90;;;;;;;13.91;74.96;95217.16;5095923;28;20431;-77
2022/10/14 00:25:09;;;;;;;7.13;5.37;;;;;;;14.04;74.54;95212.41;5095592;28;20439;-77
2022/10/14 00:27:37;;;;;;;10.80;5.30;;;;;;;14.07;74.31;95206.84;5095659;28;20501;-77
2022/10/14 00:30:05;;;;;;;9.20;4.90;;;;;;;13.76;75.36;95210.66;5095171;28;20544;-77
2022/10/14 00:32:31;;;;;;;6.60;4.07;;;;;;;13.91;75.23;95217.16;5095549;28;20439;-77
2022/10/14 00:34:58;;;;;;;4.60;4.10;;;;;;;13.98;75.39;95209.50;5095636;28;20443;-77
2022/10/14 00:37:25;;;;;;;7.27;3.60;;;;;;;14.06;75.09;95215.72;5095452;28;20451;-77
2022/10/14 00:39:52;;;;;;;4.13;3.73;;;;;;;14.01;75.22;95206.56;5095797;28;20448;-77
2022/10/14 00:42:18;;;;;;;6.33;3.60;;;;;;;14.01;75.43;95210.03;5095391;28;20439;-77
2022/10/14 00:45:05;;;;;;;5.30;3.40;;;;;;;14.03;75.58;95208.09;5095571;28;20448;-77
2022/10/14 00:47:32;;;;;;;4.03;3.63;;;;;;;14.07;75.50;95209.47;5095489;28;20443;-77
2022/10/14 00:50:00;;;;;;;3.63;3.30;;;;;;;14.06;75.58;95210.44;5095378;28;20476;-77
2022/10/14 00:52:27;;;;;;;5.63;3.77;;;;;;;14.12;76.40;95206.41;5095081;28;20551;-77
2022/10/14 00:54:58;;;;;;;3.27;2.97;;;;;;;14.08;75.94;95207.66;5059559;28;20440;-77
2022/10/14 00:57:26;;;;;;;3.23;2.90;;;;;;;14.07;75.97;95206.84;5095222;28;20444;-77
2022/10/14 00:59:56;;;;;;;3.27;2.77;;;;;;;14.11;76.01;95199.44;5095146;28;20500;-77
2022/10/14 01:02:25;;;;;;;3.60;2.93;;;;;;;14.12;75.52;95201.94;5095236;28;20875;-77
2022/10/14 01:04:51;;;;;;;6.33;3.10;;;;;;;13.95;76.63;95193.00;5095090;28;20447;-76
2022/10/14 01:07:31;;;;;;;3.77;3.47;;;;;;;13.98;76.49;95191.88;5094657;28;20448;-77
2022/10/14 01:10:08;;;;;;;6.50;3.60;;;;;;;13.95;76.93;95193.00;5094860;28;20482;-77
2022/10/14 01:12:46;;;;;;;9.80;3.30;;;;;;;13.83;77.70;95178.28;5058424;28;20477;-76
2022/10/14 01:15:21;;;;;;;2.70;2.50;;;;;;;13.69;79.15;95188.47;5094953;28;20835;-77
2022/10/14 01:18:02;;;;;;;3.90;3.30;;;;;;;13.73;79.35;95181.94;5044451;28;20459;-77
2022/10/14 01:20:49;;;;;;;8.80;4.30;;;;;;;13.71;79.27;95168.06;5094761;28;20870;-77
2022/10/14 01:23:46;;;;;;;3.50;3.03;;;;;;;13.63;79.84;95158.22;5094404;28;20451;-77
2022/10/14 01:26:29;;;;;;;2.83;2.63;;;;;;;13.69;79.82;95159.47;5094800;28;20871;-77
2022/10/14 01:29:13;;;;;;;3.73;3.43;;;;;;;13.75;79.77;95159.72;5094763;28;20444;-76
2022/10/14 01:31:45;;;;;;;3.60;2.57;;;;;;;13.58;80.22;95158.63;5094412;28;20484;-77
2022/10/14 01:34:20;;;;;;;2.60;2.40;;;;;;;13.45;81.21;95162.53;5094938;28;20949;-77
2022/10/14 01:36:52;;;;;;;3.80;2.60;;;;;;;13.39;81.37;95160.47;5094647;28;20428;-76
2022/10/14 01:39:24;;;;;;;2.27;2.07;;;;;;;13.35;81.50;95165.19;5094312;28;20452;-76
2022/10/14 01:41:55;;;;;;;5.80;3.10;;;;;;;13.25;82.34;95152.00;5094220;28;20444;-76
2022/10/14 01:44:24;;;;;;;2.70;2.50;;;;;;;13.41;82.24;95148.81;5094595;28;20438;-76
2022/10/14 01:46:55;;;;;;;6.63;3.50;;;;;;;13.37;82.39;95152.72;5094156;28;20512;-76
2022/10/14 01:49:25;;;;;;;4.43;2.53;;;;;;;13.27;83.07;95147.44;5094322;28;20451;-76
2022/10/14 01:51:59;;;;;;;3.97;2.97;;;;;;;13.39;83.27;95145.50;5094127;28;20494;-76
2022/10/14 01:54:31;;;;;;;2.97;2.67;;;;;;;13.45;83.04;95144.94;5094259;28;20866;-76
2022/10/14 01:57:02;;;;;;;2.87;2.67;;;;;;;13.25;83.57;95140.63;5093788;28;20440;-77
2022/10/14 01:59:31;;;;;;;3.37;3.07;;;;;;;13.33;83.77;95143.44;5093976;28;20451;-77
2022/10/14 02:01:59;;;;;;;3.80;3.00;;;;;;;13.47;82.86;95148.25;5093923;28;20462;-76
2022/10/14 02:04:26;;;;;;;2.97;2.77;;;;;;;13.38;83.16;95148.28;5094170;28;20807;-76
2022/10/14 02:07:00;;;;;;;5.37;2.70;;;;;;;13.49;83.24;95142.84;5093889;28;20451;-76
2022/10/14 02:09:36;;;;;;;5.03;2.90;;;;;;;13.45;83.06;95147.56;5093681;28;20961;-76
2022/10/14 02:12:14;;;;;;;2.40;2.20;;;;;;;13.28;83.97;95145.63;5093702;28;21001;-76
2022/10/14 02:14:50;;;;;;;2.47;2.27;;;;;;;13.24;84.28;95146.88;5093639;28;20442;-76
2022/10/14 02:17:23;;;;;;;3.50;3.00;;;;;;;13.35;83.75;95138.84;5093744;28;20439;-77
2022/10/14 02:19:54;;;;;;;3.80;3.00;;;;;;;13.47;82.84;95132.44;5093420;28;20814;-76
2022/10/14 02:22:27;;;;;;;2.83;2.50;;;;;;;13.48;83.56;95128.00;5093503;28;20473;-76
2022/10/14 02:24:58;;;;;;;3.40;2.77;;;;;;;13.38;84.06;95135.09;5092369;28;20451;-76
2022/10/14 02:27:28;;;;;;;2.80;2.60;;;;;;;13.52;83.79;95132.00;5093340;28;20847;-76
2022/10/14 02:29:56;;;;;;;3.63;3.33;;;;;;;13.69;82.93;95133.09;5093257;28;20447;-76
2022/10/14 02:32:28;;;;;;;3.33;3.03;;;;;;;13.72;82.60;95127.53;5093378;28;20440;-76
2022/10/14 02:34:58;;;;;;;3.43;2.93;;;;;;;13.66;82.63;95134.19;5093149;28;20487;-76
2022/10/14 02:37:27;;;;;;;5.53;3.00;;;;;;;13.71;82.66;95125.84;5093518;28;20812;-76
2022/10/14 02:39:59;;;;;;;6.07;2.80;;;;;;;13.72;82.66;95128.34;5093189;28;20514;-79
2022/10/14 02:42:27;;;;;;;6.73;2.90;;;;;;;13.71;82.46;95128.50;5093353;28;20439;-77
2022/10/14 02:44:55;;;;;;;3.73;3.20;;;;;;;13.73;83.10;95130.00;5092928;28;20516;-77
2022/10/14 02:47:22;;;;;;;5.20;3.50;;;;;;;13.80;82.43;95127.63;5057407;28;20984;-77
2022/10/14 02:49:51;;;;;;;4.13;3.33;;;;;;;13.81;82.14;95121.38;5092705;28;20793;-76
2022/10/14 02:52:18;;;;;;;4.67;2.70;;;;;;;13.93;81.98;95130.78;5093053;28;20827;-76
2022/10/14 02:54:45;;;;;;;2.90;2.70;;;;;;;13.91;81.88;95122.19;5092914;28;20994;-76
2022/10/14 02:57:12;;;;;;;3.10;2.90;;;;;;;13.92;81.72;95126.50;5092747;28;20452;-76
2022/10/14 02:59:39;;;;;;;3.30;3.00;;;;;;;13.84;82.46;95123.72;5093150;28;20440;-77
2022/10/14 03:02:07;;;;;;;4.33;3.77;;;;;;;13.72;83.02;95119.59;5092895;28;20531;-77
2022/10/14 03:04:33;;;;;;;5.43;3.60;;;;;;;13.67;83.29;95117.41;5092960;28;20523;-76
2022/10/14 03:07:02;;;;;;;3.53;3.30;;;;;;;13.68;83.47;95118.25;5092795;28;20445;-76
2022/10/14 03:09:30;;;;;;;3.53;3.23;;;;;;;13.72;83.25;95109.88;5092512;28;20439;-76
2022/10/14 03:11:56;;;;;;;3.23;3.00;;;;;;;13.79;83.20;95121.53;5092519;28;20904;-76
2022/10/14 03:14:23;;;;;;;4.00;3.47;;;;;;;13.77;83.08;95115.56;5056834;28;21003;-76
2022/10/14 03:16:50;;;;;;;3.37;3.07;;;;;;;13.80;82.89;95115.28;5092450;28;20455;-79
2022/10/14 03:19:17;;;;;;;3.90;3.60;;;;;;;13.81;83.05;95110.81;5092513;28;20444;-76
2022/10/14 03:21:44;;;;;;;3.10;2.90;;;;;;;13.80;82.79;95117.91;5092452;28;20447;-76
2022/10/14 03:24:12;;;;;;;3.00;2.80;;;;;;;13.75;82.99;95116.69;5092399;28;20536;-77
2022/10/14 03:26:39;;;;;;;3.60;3.30;;;;;;;13.74;83.44;95109.75;5040651;28;20448;-76
2022/10/14 03:29:05;;;;;;;2.93;2.73;;;;;;;13.79;83.11;95107.50;5092145;28;20447;-78
2022/10/14 03:31:32;;;;;;;3.60;3.27;;;;;;;13.78;83.09;95111.13;5092625;28;20553;-78
2022/10/14 03:33:59;;;;;;;6.33;4.10;;;;;;;13.79;83.29;95108.34;5091864;28;20835;-76
2022/10/14 03:36:26;;;;;;;4.13;3.83;;;;;;;13.69;83.71;95107.53;5091953;28;20531;-78
2022/10/14 03:38:52;;;;;;;3.73;3.23;;;;;;;13.71;83.73;95108.22;5092270;28;20489;-76
2022/10/14 03:41:21;;;;;;;11.83;4.13;;;;;;;13.63;84.14;95097.56;5091929;28;20443;-76
2022/10/14 03:43:48;;;;;;;5.03;4.57;;;;;;;13.59;84.11;95102.31;5091875;28;20868;-76
2022/10/14 03:46:14;;;;;;;13.20;4.80;;;;;;;13.53;84.69;95107.28;5092191;28;20490;-76
2022/10/14 03:48:41;;;;;;;4.40;4.00;;;;;;;13.29;85.75;95105.13;5092064;28;20436;-76
2022/10/14 03:51:08;;;;;;;4.20;3.80;;;;;;;13.39;85.94;95107.75;5091871;28;21009;-78
2022/10/14 03:53:35;;;;;;;5.17;4.73;;;;;;;13.45;85.64;95101.91;5092503;28;20973;-76
2022/10/14 03:56:02;;;;;;;6.30;4.40;;;;;;;13.49;85.28;95105.94;5091835;28;20451;-76
2022/10/14 03:58:30;;;;;;;4.80;4.40;;;;;;;13.43;85.47;95104.69;5092190;28;20846;-76
2022/10/14 04:00:57;;;;;;;4.83;4.50;;;;;;;13.44;85.74;95101.09;5092088;28;20447;-76
2022/10/14 04:03:24;;;;;;;6.57;5.27;;;;;;;13.48;85.68;95094.53;5092080;28;20452;-76
2022/10/14 04:05:50;;;;;;;5.80;5.33;;;;;;;13.56;85.10;95091.19;5091580;28;20444;-76
2022/10/14 04:08:17;;;;;;;10.47;5.87;;;;;;;13.58;85.63;95090.06;5056127;28;20448;-77
2022/10/14 04:10:44;;;;;;;5.40;5.00;;;;;;;13.49;85.92;95096.22;5091840;28;20533;-76
2022/10/14 04:13:11;;;;;;;9.07;5.20;;;;;;;13.45;86.41;95094.84;5091620;28;20450;-76
2022/10/14 04:15:39;;;;;;;7.57;5.00;;;;;;;13.54;86.17;95093.13;5094767;28;20493;-76
2022/10/14 04:18:06;;;;;;;8.67;5.03;;;;;;;13.41;86.28;95098.75;5092209;28;20448;-78
2022/10/14 04:20:32;;;;;;;7.47;5.13;;;;;;;13.48;86.18;95093.72;5091677;28;20447;-77
2022/10/14 04:22:59;;;;;;;4.82;4.30;;;;;;;13.51;85.95;95091.63;5091217;28;20443;-78
2022/10/14 04:25:29;;;;;;;4.00;3.43;;;;;;;13.39;84.78;95090.13;5092239;28;20210;-78
2022/10/14 04:27:56;;;;;;;4.00;3.60;;;;;;;13.31;84.88;95087.38;5091653;28;20444;-78
2022/10/14 04:30:23;;;;;;;2.83;2.63;;;;;;;13.31;84.60;95092.66;5091312;28;20451;-79
2022/10/14 04:32:51;;;;;;;3.73;3.30;;;;;;;13.03;85.71;95089.88;5093294;28;20459;-79
2022/10/14 04:35:18;;;;;;;7.90;4.30;;;;;;;13.17;86.03;95090.41;5092755;28;20459;-79
2022/10/14 04:37:45;;;;;;;7.03;3.00;;;;;;;13.21;85.64;95082.13;5092355;28;20451;-76
2022/10/14 04:40:11;;;;;;;5.37;3.93;;;;;;;13.23;85.38;95080.16;5091964;28;20444;-78
2022/10/14 04:42:38;;;;;;;10.07;4.73;;;;;;;13.24;86.30;95073.09;5091777;28;20447;-79
2022/10/14 04:45:06;;;;;;;6.37;5.23;;;;;;;13.24;85.95;95075.72;5091835;28;20443;-78
2022/10/14 04:47:33;;;;;;;6.00;3.70;;;;;;;13.29;85.84;95084.03;5092253;28;20926;-79
2022/10/14 04:50:01;;;;;;;7.37;3.63;;;;;;;13.33;85.71;95080.16;5108205;28;20837;-79
2022/10/14 04:52:27;;;;;;;4.80;3.30;;;;;;;13.44;85.44;95081.81;5112715;28;20497;-79
2022/10/14 04:54:54;;;;;;;5.33;3.50;;;;;;;13.51;85.29;95077.59;5115457;28;20440;-79
2022/10/14 04:57:21;;;;;;;9.27;3.70;;;;;;;13.54;85.21;95079.97;5113957;28;20814;-76
2022/10/14 04:59:48;;;;;;;5.83;4.40;;;;;;;13.60;84.79;95072.31;5111765;28;20447;-79
2022/10/14 05:02:15;;;;;;;5.60;5.10;;;;;;;13.55;84.19;95074.53;5105858;28;20455;-79
2022/10/14 05:04:41;;;;;;;6.40;5.80;;;;;;;13.59;84.24;95069.84;5103342;28;20443;-79
2022/10/14 05:07:09;;;;;;;5.07;4.70;;;;;;;13.51;83.99;95065.25;5115971;28;20439;-79
2022/10/14 05:09:36;;;;;;;5.17;4.73;;;;;;;13.40;84.76;95061.97;5115395;28;20435;-80
2022/10/14 05:12:04;;;;;;;6.00;5.40;;;;;;;13.41;84.62;95056.56;5115366;28;20482;-80
2022/10/14 05:14:30;;;;;;;5.63;5.10;;;;;;;13.54;84.40;95062.34;5114953;28;20493;-79
2022/10/14 05:16:57;;;;;;;6.70;6.20;;;;;;;13.53;84.28;95063.31;5115151;28;20447;-78
2022/10/14 05:19:24;;;;;;;5.43;4.93;;;;;;;13.39;84.96;95053.25;5114965;28;20447;-78
2022/10/14 05:21:51;;;;;;;6.03;5.60;;;;;;;13.47;85.18;95055.97;5114758;28;20446;-79
2022/10/14 05:24:19;;;;;;;8.73;5.70;;;;;;;13.47;85.00;95061.25;5114895;28;20791;-79
2022/10/14 05:26:46;;;;;;;5.30;4.87;;;;;;;13.37;85.45;95062.25;5115278;28;20531;-79
2022/10/14 05:29:13;;;;;;;9.80;5.63;;;;;;;13.42;85.73;95063.50;5062366;28;20455;-79
2022/10/14 05:31:39;;;;;;;12.50;5.03;;;;;;;13.40;85.22;95060.16;5115283;28;20489;-79
2022/10/14 05:34:06;;;;;;;4.80;4.40;;;;;;;13.38;84.76;95070.03;5106078;28;20456;-78
2022/10/14 05:36:33;;;;;;;5.90;5.30;;;;;;;13.43;84.53;95059.88;5099452;28;20454;-79
2022/10/14 05:39:00;;;;;;;7.10;4.93;;;;;;;13.47;84.60;95070.97;5096523;28;20440;-78
2022/10/14 05:41:28;;;;;;;5.33;4.80;;;;;;;13.58;83.94;95074.25;5109046;28;20457;-79
2022/10/14 05:43:55;;;;;;;5.87;5.37;;;;;;;13.72;83.98;95066.88;5114447;28;20440;-79
2022/10/14 05:46:22;;;;;;;8.80;5.70;;;;;;;13.81;83.44;95072.09;5112543;28;20443;-79
2022/10/14 05:48:48;;;;;;;7.50;5.20;;;;;;;13.86;82.58;95080.41;5108553;28;20464;-79
2022/10/14 05:51:19;;;;;;;7.60;5.57;;;;;;;13.93;81.90;95083.31;5110523;28;20489;-78
2022/10/14 05:53:46;;;;;;;6.20;5.70;;;;;;;14.05;80.99;95086.56;5100757;28;20455;-78
2022/10/14 05:56:14;;;;;;;6.77;4.67;;;;;;;14.11;80.49;95088.63;5100276;28;20454;-79
2022/10/14 05:58:42;;;;;;;7.90;5.90;;;;;;;14.00;80.51;95092.28;5108396;28;20514;-78
2022/10/14 06:01:11;;;;;;;14.13;6.37;;;;;;;14.03;80.44;95093.81;5110261;28;20694;-76
2022/10/14 06:03:38;;;;;;;6.20;5.60;;;;;;;14.06;80.28;95104.91;5113837;28;20497;-78
2022/10/14 06:06:07;;;;;;;7.27;4.63;;;;;;;14.03;80.92;95104.34;5069990;28;20515;-79
2022/10/14 06:08:34;;;;;;;4.90;4.50;;;;;;;14.09;81.54;95107.25;5113986;28;20967;-79
2022/10/14 06:11:04;;;;;;;6.20;5.60;;;;;;;14.15;80.99;95106.66;5113690;28;20495;-79
2022/10/14 06:13:31;;;;;;;12.00;6.40;;;;;;;14.24;80.03;95111.06;5061616;28;20474;-78
2022/10/14 06:16:05;;;;;;;14.43;7.30;;;;;;;14.28;78.87;95108.97;5077591;28;20438;-76
2022/10/14 06:18:33;;;;;;;3.90;3.30;;;;;;;14.19;77.25;95115.97;5113689;28;20451;-76
2022/10/14 06:21:01;;;;;;;10.50;4.87;;;;;;;14.31;78.41;95113.94;5113886;28;20452;-76
2022/10/14 06:23:29;;;;;;;3.87;3.57;;;;;;;14.38;78.25;95115.00;5113551;28;20439;-77
2022/10/14 06:25:57;;;;;;;5.20;4.80;;;;;;;14.21;78.17;95113.19;5113456;28;20443;-77
2022/10/14 06:28:26;;;;;;;9.60;3.57;;;;;;;14.13;78.11;95105.97;5114034;28;20812;-78
2022/10/14 06:30:55;;;;;;;4.63;4.00;;;;;;;13.97;79.35;95105.78;5113629;28;20518;-79
2022/10/14 06:33:24;;;;;;;8.27;4.57;;;;;;;14.14;79.21;95110.25;5113388;28;20483;-79
2022/10/14 06:35:52;;;;;;;4.53;4.20;;;;;;;14.23;79.09;95119.13;5101178;28;20452;-79
2022/10/14 06:38:19;;;;;;;4.77;3.70;;;;;;;14.39;78.00;95123.75;5040885;28;20844;-78
2022/10/14 06:40:50;;;;;;;5.33;4.30;;;;;;;14.50;76.94;95124.44;5058046;28;20431;-79
2022/10/14 06:43:17;;;;;;;4.27;3.87;;;;;;;14.64;76.80;95119.63;5094061;28;20501;-79
2022/10/14 06:45:45;;;;;;;4.93;4.43;;;;;;;14.72;76.21;95123.16;5091427;28;20444;-79
2022/10/14 06:48:12;;;;;;;5.20;4.80;;;;;;;14.81;76.38;95117.00;5074942;28;20432;-79
2022/10/14 06:50:42;;;;;;;5.57;5.13;;;;;;;14.89;76.19;95118.88;5008593;28;20883;-78
2022/10/14 06:53:10;;;;;;;7.30;5.00;;;;;;;14.95;75.27;95125.38;5093752;28;20527;-79
2022/10/14 06:55:38;;;;;;;5.83;4.60;;;;;;;14.93;74.53;95116.75;5093304;28;20455;-78
2022/10/14 06:58:06;;;;;;;5.43;4.80;;;;;;;14.95;74.48;95118.28;5093408;28;20482;-78
2022/10/14 07:00:34;;;;;;;10.67;6.87;;;;;;;14.93;75.14;95116.75;5093305;28;20451;-79
2022/10/14 07:03:02;;;;;;;6.37;5.77;;;;;;;14.64;74.93;95120.44;5093611;28;20451;-79
2022/10/14 07:05:31;;;;;;;6.07;4.90;;;;;;;14.83;74.95;95120.31;5040356;28;20436;-78
2022/10/14 07:08:00;;;;;;;6.80;6.10;;;;;;;14.88;75.13;95117.22;5092723;28;20440;-78
2022/10/14 07:10:28;;;;;;;8.33;6.50;;;;;;;14.95;74.68;95114.81;5073545;28;20441;-79
2022/10/14 07:12:56;;;;;;;7.77;5.57;;;;;;;15.01;73.91;95119.47;5093233;28;20493;-78
2022/10/14 07:15:24;;;;;;;5.73;5.23;;;;;;;14.98;73.28;95111.84;5092972;28;20885;-77
2022/10/14 07:17:52;;;;;;;6.13;5.53;;;;;;;14.98;73.79;95111.84;5092752;28;20493;-78
2022/10/14 07:20:20;;;;;;;6.67;6.03;;;;;;;14.92;73.62;95121.22;5092976;28;20503;-79
2022/10/14 07:22:49;;;;;;;7.30;5.80;;;;;;;14.95;74.33;95113.00;5092817;28;20993;-78
2022/10/14 07:25:18;;;;;;;5.80;5.20;;;;;;;14.99;73.13;95111.69;5092961;28;20448;-78
2022/10/14 07:27:47;;;;;;;6.07;5.57;;;;;;;15.07;73.06;95110.97;5092937;28;21282;-78
2022/10/14 07:30:15;;;;;;;7.77;6.37;;;;;;;15.13;72.81;95119.09;5092939;28;20918;-78
2022/10/14 07:32:43;;;;;;;6.93;5.70;;;;;;;15.14;72.56;95114.66;5041054;28;20562;-78
2022/10/14 07:35:11;;;;;;;6.50;5.90;;;;;;;15.21;72.82;95118.34;5041290;28;20464;-77
2022/10/14 07:37:39;;;;;;;9.13;5.30;;;;;;;15.28;72.05;95121.19;5092702;28;20445;-78
2022/10/14 07:40:11;;;;;;;7.60;6.07;;;;;;;15.22;72.12;95124.47;5092550;28;20454;-78
2022/10/14 07:42:43;;;;;;;6.23;5.50;;;;;;;15.27;71.72;95127.47;5092167;28;20452;-78
2022/10/14 07:45:14;;;;;;;11.20;6.37;;;;;;;15.36;71.62;95121.28;5051170;28;20439;-78
2022/10/14 07:47:43;;;;;;;8.00;5.30;;;;;;;15.41;71.09;95109.25;5073757;28;20936;-77
2022/10/14 07:50:11;;;;;;;5.87;5.37;;;;;;;15.48;71.04;95114.75;5091947;28;20451;-78
2022/10/14 07:52:43;;;;;;;8.23;6.57;;;;;;;15.52;70.73;95112.63;5092341;28;20498;-78
2022/10/14 07:55:11;;;;;;;9.27;5.67;;;;;;;15.47;70.44;95116.56;5092159;28;20453;-78
2022/10/14 07:57:39;;;;;;;6.23;5.73;;;;;;;15.39;70.32;95119.16;5073261;28;20449;-78
2022/10/14 08:00:10;;;;;;;5.20;4.70;;;;;;;15.35;68.74;95119.63;5056110;28;20879;-78
2022/10/14 08:02:39;;;;;;;6.17;5.57;;;;;;;15.37;68.36;95121.13;5039637;28;20439;-77
2022/10/14 08:05:07;;;;;;;7.33;6.63;;;;;;;15.45;69.13;95115.06;5091541;28;20454;-77
2022/10/14 08:07:36;;;;;;;14.03;7.33;;;;;;;15.44;68.98;95114.22;5056396;28;20432;-78
2022/10/14 08:10:07;;;;;;;6.70;4.10;;;;;;;15.21;67.82;95117.50;5091419;28;20479;-77
2022/10/14 08:12:35;;;;;;;4.50;4.10;;;;;;;15.09;68.35;95109.00;5091734;28;20487;-77
2022/10/14 08:15:04;;;;;;;5.87;4.43;;;;;;;15.06;69.02;95112.78;5092039;28;20483;-77
2022/10/14 08:17:35;;;;;;;5.10;4.60;;;;;;;15.22;68.92;95114.72;5091893;28;20445;-78
2022/10/14 08:20:06;;;;;;;10.70;4.40;;;;;;;15.31;68.44;95113.78;5072781;28;20451;-78
2022/10/14 08:22:34;;;;;;;7.77;4.50;;;;;;;15.48;68.97;95104.16;5094235;28;20450;-77
2022/10/14 08:25:02;;;;;;;5.40;4.50;;;;;;;15.62;68.16;95121.34;5076811;28;20809;-78
2022/10/14 08:27:33;;;;;;;5.60;4.60;;;;;;;15.71;65.64;95105.34;5060268;28;20530;-79
2022/10/14 08:30:02;;;;;;;5.07;3.80;;;;;;;15.79;64.72;95110.69;5095460;28;20473;-78
2022/10/14 08:32:34;;;;;;;4.83;4.30;;;;;;;15.87;64.74;95115.19;5095600;28;20578;-78
2022/10/14 08:35:03;;;;;;;5.73;4.90;;;;;;;15.97;64.38;95115.94;5095337;28;20577;-78
2022/10/14 08:37:34;;;;;;;5.37;3.90;;;;;;;16.05;65.56;95117.78;5095450;28;20527;-78
2022/10/14 08:40:08;;;;;;;4.50;4.00;;;;;;;16.07;65.17;95108.69;5095158;28;20444;-77
2022/10/14 08:42:44;;;;;;;4.63;4.30;;;;;;;16.13;65.02;95115.16;5076814;28;20961;-78
2022/10/14 08:45:19;;;;;;;5.63;5.00;;;;;;;16.21;64.48;95111.75;5103022;28;20446;-78
2022/10/14 08:47:49;;;;;;;6.23;3.63;;;;;;;16.08;63.10;95112.16;5065290;28;20478;-78
2022/10/14 08:50:28;;;;;;;6.90;4.00;;;;;;;15.98;63.52;95120.22;5115477;28;20500;-77
2022/10/14 08:53:04;;;;;;;8.13;5.97;;;;;;;16.23;64.31;95113.25;5115472;28;20572;-78
2022/10/14 08:55:38;;;;;;;10.93;3.60;;;;;;;16.36;61.89;95126.84;5115313;28;20812;-78
2022/10/14 08:58:13;;;;;;;3.27;2.97;;;;;;;16.44;61.06;95123.41;5115599;28;20447;-77
2022/10/14 09:00:54;;;;;;;6.43;3.83;;;;;;;16.58;60.96;95112.22;5046337;28;20910;-78
2022/10/14 09:03:33;;;;;;;6.73;4.00;;;;;;;16.85;59.69;95115.63;5115615;28;20499;-78
2022/10/14 09:06:06;;;;;;;4.63;3.10;;;;;;;16.94;55.71;95120.75;5064924;28;20447;-78
2022/10/14 09:08:41;;;;;;;6.73;2.90;;;;;;;16.69;57.02;95114.56;5114984;28;20443;-78
2022/10/14 09:11:13;;;;;;;2.87;2.67;;;;;;;16.73;59.12;95113.25;5115212;28;20477;-78
2022/10/14 09:13:44;;;;;;;6.77;3.03;;;;;;;16.86;58.72;95109.31;5079171;28;20561;-78
2022/10/14 09:16:20;;;;;;;3.47;3.17;;;;;;;16.56;57.12;95118.66;5063528;28;20540;-77
2022/10/14 09:18:54;;;;;;;3.80;3.40;;;;;;;16.77;59.17;95112.94;5114937;28;20496;-78
2022/10/14 09:21:29;;;;;;;4.43;2.80;;;;;;;16.98;58.30;95105.34;5114710;28;20470;-79
2022/10/14 09:24:02;;;;;;;3.70;3.13;;;;;;;16.98;56.71;95113.31;5114361;28;20451;-78
2022/10/14 09:26:40;;;;;;;3.33;3.03;;;;;;;16.99;56.03;95107.00;5096977;28;20448;-79
2022/10/14 09:29:24;;;;;;;3.30;3.00;;;;;;;17.08;57.23;95111.34;5095020;28;20444;-79
2022/10/14 09:31:53;;;;;;;3.83;3.43;;;;;;;17.04;57.23;95107.34;5095118;28;20448;-78
2022/10/14 09:34:29;;;;;;;3.83;2.93;;;;;;;17.16;56.00;95097.25;5058749;28;20583;-78
2022/10/14 09:37:03;;;;;;;3.33;3.03;;;;;;;17.08;56.24;95106.03;5095142;28;20475;-79
2022/10/14 09:39:35;;;;;;;5.23;3.17;;;;;;;17.21;56.62;95098.41;5094890;28;20454;-78
2022/10/14 09:42:04;;;;;;;5.10;3.70;;;;;;;16.77;56.83;95102.31;5095026;28;20486;-78
2022/10/14 09:44:32;;;;;;;10.60;3.93;;;;;;;16.78;57.93;95102.19;5094790;28;20444;-78
2022/10/14 09:47:06;;;;;;;3.53;3.20;;;;;;;16.77;57.70;95102.31;5094816;28;20527;-79
2022/10/14 09:49:47;;;;;;;6.50;3.90;;;;;;;16.84;57.23;95098.06;5094728;28;20519;-78
2022/10/14 09:52:26;;;;;;;6.87;3.60;;;;;;;16.99;57.38;95107.00;5055050;28;20555;-79
2022/10/14 09:54:57;;;;;;;2.83;2.63;;;;;;;16.72;55.61;95108.13;5073876;28;20480;-78
2022/10/14 09:57:26;;;;;;;3.70;3.10;;;;;;;16.58;57.51;95103.44;5073810;28;20448;-78
2022/10/14 10:00:00;;;;;;;4.00;3.27;;;;;;;16.68;56.21;95104.13;5073776;28;20525;-78
2022/10/14 10:02:40;;;;;;;3.90;3.60;;;;;;;16.58;56.96;95103.44;5073506;28;20449;-78
2022/10/14 10:05:27;;;;;;;6.00;4.30;;;;;;;16.63;57.78;95107.25;5074106;28;20472;-78
2022/10/14 10:08:11;;;;;;;3.80;3.50;;;;;;;16.92;59.47;95100.72;5072116;28;20480;-79
2022/10/14 10:10:39;;;;;;;4.50;3.43;;;;;;;16.65;56.10;95104.44;5056132;28;20437;-78
2022/10/14 10:13:22;;;;;;;3.90;3.07;;;;;;;16.70;55.74;95100.34;5055259;28;20520;-78
2022/10/14 10:15:59;;;;;;;3.17;2.87;;;;;;;16.75;56.43;95101.66;5073661;28;20817;-77
2022/10/14 10:18:28;;;;;;;3.10;2.80;;;;;;;16.55;55.97;95103.75;5073301;28;20475;-78
2022/10/14 10:21:18;;;;;;;4.30;3.83;;;;;;;16.43;56.92;95095.25;5073366;28;20534;-78
2022/10/14 10:23:56;;;;;;;3.00;2.80;;;;;;;16.42;57.67;95081.19;5054764;28;20433;-78
2022/10/14 10:26:29;;;;;;;6.40;3.40;;;;;;;16.36;58.57;95081.84;5073295;28;20532;-78
2022/10/14 10:28:57;;;;;;;3.60;3.23;;;;;;;16.22;59.98;95086.94;5073390;28;20455;-76
2022/10/14 10:31:43;;;;;;;2.90;2.70;;;;;;;15.95;57.76;95086.16;5073303;28;20444;-76
2022/10/14 10:34:59;;;;;;;3.90;3.53;;;;;;;16.07;58.45;95078.75;5073191;28;20485;-76
2022/10/14 10:37:29;;;;;;;3.33;3.00;;;;;;;16.08;58.67;95072.47;5072854;28;20545;-77
2022/10/14 10:40:18;;;;;;;2.40;2.20;;;;;;;16.06;54.26;95077.09;5038096;28;20491;-76
2022/10/14 10:42:59;;;;;;;7.23;2.83;;;;;;;15.83;54.10;95074.16;5072847;28;20455;-77
2022/10/14 10:45:37;;;;;;;5.40;2.40;;;;;;;15.98;52.66;95072.59;5071923;28;20439;-76
2022/10/14 10:48:12;;;;;;;2.60;2.37;;;;;;;15.88;52.95;95063.91;5073166;28;20884;-76
2022/10/14 10:50:47;;;;;;;2.37;2.17;;;;;;;16.04;52.33;95071.13;5073130;28;20440;-76
2022/10/14 10:53:29;;;;;;;4.93;2.57;;;;;;;16.19;52.36;95055.44;5088650;28;20493;-77
2022/10/14 10:56:08;;;;;;;2.47;2.27;;;;;;;16.16;48.99;95053.13;5092859;28;20450;-76
2022/10/14 10:58:43;;;;;;;2.20;2.00;;;;;;;16.45;46.05;95045.59;5093591;28;20871;-76
2022/10/14 11:01:24;;;;;;;3.60;2.27;;;;;;;16.75;48.13;95046.00;5092835;28;20451;-76
2022/10/14 11:04:07;;;;;;;4.43;2.20;;;;;;;16.81;49.37;95054.16;5092924;28;21101;-77
2022/10/14 11:12:28;;;;;;;2.60;2.40;;;;;;;16.44;47.29;95036.00;5092805;28;20532;-78
2022/10/14 11:15:24;;;;;;;3.40;2.00;;;;;;;16.46;49.85;95026.06;5092878;28;20447;-78
2022/10/14 11:17:58;;;;;;;1.70;1.60;;;;;;;16.65;43.88;95017.00;5010388;28;20953;-76
2022/10/14 11:20:40;;;;;;;1.67;1.50;;;;;;;16.89;42.04;95011.75;5010209;28;20957;-76
2022/10/14 11:23:35;;;;;;;1.87;1.70;;;;;;;17.14;40.74;95009.91;5010224;28;20826;-79
2022/10/14 11:26:13;;;;;;;2.80;1.40;;;;;;;17.25;38.01;94996.31;4979528;28;20881;-76
2022/10/14 11:28:51;;;;;;;1.60;1.50;;;;;;;17.27;37.36;94996.97;5010085;28;20455;-76
2022/10/14 11:31:29;;;;;;;1.53;1.43;;;;;;;17.34;36.49;94983.84;5010192;28;20522;-76
2022/10/14 11:34:13;;;;;;;1.47;1.37;;;;;;;17.38;36.21;94982.53;5009891;28;20483;-78
2022/10/14 11:36:49;;;;;;;1.50;1.40;;;;;;;17.29;37.41;94981.69;5010009;28;20506;-79
2022/10/14 11:39:34;;;;;;;19.47;1.80;;;;;;;17.08;37.39;94973.47;5010173;28;20963;-77
2022/10/14 11:42:19;;;;;;;2.60;1.70;;;;;;;17.07;38.14;94969.16;5009926;28;20490;-78
2022/10/14 11:44:48;;;;;;;1.80;1.60;;;;;;;17.24;38.51;94967.31;5010053;28;21080;-78
2022/10/14 11:47:20;;;;;;;3.43;1.33;;;;;;;17.24;37.10;94968.13;4978121;28;20502;-78
2022/10/14 11:49:54;;;;;;;1.60;1.50;;;;;;;17.32;37.49;94975.22;5010017;28;20505;-78
2022/10/14 11:52:28;;;;;;;2.10;1.90;;;;;;;17.36;38.50;94965.97;5009741;28;20470;-77
2022/10/14 11:55:01;;;;;;;1.93;1.63;;;;;;;17.32;38.89;94968.09;5042664;28;20480;-78
2022/10/14 11:57:35;;;;;;;6.13;1.40;;;;;;;17.44;39.33;94963.28;5046564;28;20496;-78